createdAt,value
2018-01-12T00:00:17.347Z,5.90
2018-01-12T00:02:45.042Z,6.20
2018-01-12T00:05:13.474Z,5.80
2018-01-12T00:07:42.621Z,5.80
2018-01-12T00:10:10.290Z,5.80
2018-01-12T00:12:38.754Z,5.80
2018-01-12T00:15:07.173Z,6.10
2018-01-12T00:17:34.876Z,6.10
2018-01-12T00:20:02.553Z,6.30
2018-01-12T00:22:31.194Z,6.00
2018-01-12T00:24:58.886Z,5.90
2018-01-12T00:27:26.597Z,5.80
2018-01-12T00:29:54.249Z,5.70
2018-01-12T00:32:21.959Z,5.80
2018-01-12T00:34:49.670Z,6.10
2018-01-12T00:37:17.331Z,6.10
2018-01-12T00:39:45.071Z,5.80
2018-01-12T00:42:12.783Z,5.80
2018-01-12T00:44:40.627Z,5.60
2018-01-12T00:47:08.323Z,5.60
2018-01-12T00:49:36.067Z,6.00
2018-01-12T00:52:03.850Z,6.10
2018-01-12T00:54:31.594Z,6.10
2018-01-12T00:56:59.558Z,5.90
2018-01-12T00:59:27.307Z,5.80
2018-01-12T01:01:54.965Z,5.70
2018-01-12T01:04:22.667Z,5.60
2018-01-12T01:06:51.088Z,6.00
2018-01-12T01:09:18.910Z,6.00
2018-01-12T01:11:47.331Z,5.80
2018-01-12T01:14:15.107Z,5.80
2018-01-12T01:16:42.843Z,5.60
2018-01-12T01:19:10.643Z,5.50
2018-01-12T01:21:38.446Z,5.40
2018-01-12T01:24:06.158Z,5.40
2018-01-12T01:26:33.924Z,5.50
2018-01-12T01:29:01.647Z,5.40
2018-01-12T01:31:29.516Z,5.50
2018-01-12T01:33:57.384Z,5.40
2018-01-12T01:36:25.048Z,5.50
2018-01-12T01:38:53.140Z,5.50
2018-01-12T01:41:20.806Z,5.90
2018-01-12T01:43:48.506Z,6.10
2018-01-12T01:46:16.254Z,6.10
2018-01-12T01:48:45.060Z,5.70
2018-01-12T01:51:12.780Z,5.70
2018-01-12T01:53:40.590Z,5.80
2018-01-12T01:56:08.474Z,5.80
2018-01-12T01:58:37.925Z,5.70
2018-01-12T02:01:05.602Z,5.60
2018-01-12T02:03:34.238Z,6.00
2018-01-12T02:06:02.083Z,5.90
2018-01-12T02:08:29.789Z,6.10
2018-01-12T02:10:58.288Z,6.10
2018-01-12T02:13:25.990Z,6.10
2018-01-12T02:15:53.654Z,5.90
2018-01-12T02:18:21.584Z,6.00
2018-01-12T02:20:49.342Z,5.80
2018-01-12T02:23:17.205Z,5.60
2018-01-12T02:25:45.047Z,5.60
2018-01-12T02:28:13.510Z,5.40
2018-01-12T02:30:41.232Z,5.40
2018-01-12T02:33:08.939Z,5.30
2018-01-12T02:35:37.486Z,5.20
2018-01-12T02:38:06.186Z,5.20
2018-01-12T02:40:33.850Z,5.30
2018-01-12T02:46:30.875Z,5.20
2018-01-12T02:48:58.587Z,5.20
2018-01-12T02:51:27.101Z,5.20
2018-01-12T02:53:55.102Z,5.20
2018-01-12T02:56:23.602Z,5.40
2018-01-12T02:58:51.522Z,5.40
2018-01-12T03:01:19.184Z,5.50
2018-01-12T03:03:46.883Z,5.40
2018-01-12T03:06:14.578Z,5.50
2018-01-12T03:08:42.362Z,5.60
2018-01-12T03:11:10.158Z,5.70
2018-01-12T03:13:38.092Z,5.60
2018-01-12T03:16:05.750Z,5.50
2018-01-12T03:18:33.554Z,5.90
2018-01-12T03:21:02.007Z,5.80
2018-01-12T03:23:29.771Z,5.80
2018-01-12T03:26:08.182Z,5.90
2018-01-12T03:28:35.882Z,5.90
2018-01-12T03:31:04.398Z,5.70
2018-01-12T03:33:32.096Z,5.70
2018-01-12T03:35:59.755Z,5.60
2018-01-12T03:38:28.564Z,5.60
2018-01-12T03:40:57.010Z,5.40
2018-01-12T03:43:24.798Z,5.40
2018-01-12T03:45:53.218Z,5.40
2018-01-12T03:51:05.443Z,5.40
2018-01-12T03:53:33.146Z,5.40
2018-01-12T03:56:02.587Z,5.70
2018-01-12T03:58:30.286Z,5.80
2018-01-12T04:00:58.736Z,5.80
2018-01-12T04:03:26.560Z,5.70
2018-01-12T04:05:54.274Z,5.60
2018-01-12T04:08:22.224Z,5.50
2018-01-12T04:10:49.886Z,5.30
2018-01-12T04:13:17.609Z,5.10
2018-01-12T04:15:45.392Z,5.20
2018-01-12T04:18:13.059Z,5.40
2018-01-12T04:20:40.879Z,5.30
2018-01-12T04:23:08.559Z,5.20
2018-01-12T04:25:37.022Z,5.00
2018-01-12T04:28:07.488Z,4.90
2018-01-12T04:30:35.194Z,4.90
2018-01-12T04:33:02.939Z,4.90
2018-01-12T04:35:30.701Z,5.00
2018-01-12T04:37:58.385Z,5.00
2018-01-12T04:40:26.909Z,5.40
2018-01-12T04:42:54.583Z,5.30
2018-01-12T04:45:22.509Z,5.30
2018-01-12T04:47:50.282Z,5.20
2018-01-12T04:50:18.149Z,5.10
2018-01-12T04:52:46.017Z,5.10
2018-01-12T04:55:13.739Z,5.00
2018-01-12T04:57:42.176Z,5.20
2018-01-12T05:00:09.991Z,5.20
2018-01-12T05:02:37.671Z,5.10
2018-01-12T05:05:05.388Z,5.00
2018-01-12T05:07:33.185Z,5.00
2018-01-12T05:10:00.924Z,4.90
2018-01-12T05:12:29.452Z,4.90
2018-01-12T05:14:57.160Z,4.90
2018-01-12T05:17:24.962Z,4.90
2018-01-12T05:19:52.844Z,4.90
2018-01-12T05:22:21.473Z,4.80
2018-01-12T05:24:50.084Z,4.80
2018-01-12T05:27:17.772Z,4.70
2018-01-12T05:29:45.462Z,4.80
2018-01-12T05:32:13.176Z,5.10
2018-01-12T05:34:40.888Z,5.30
2018-01-12T05:37:09.787Z,5.30
2018-01-12T05:39:38.327Z,5.30
2018-01-12T05:42:05.984Z,5.30
2018-01-12T05:44:33.822Z,5.10
2018-01-12T05:47:01.522Z,4.90
2018-01-12T05:49:29.871Z,5.00
2018-01-12T05:51:57.671Z,4.80
2018-01-12T05:54:25.432Z,4.80
2018-01-12T05:56:53.956Z,4.60
2018-01-12T05:59:21.678Z,4.60
2018-01-12T06:02:01.362Z,4.70
2018-01-12T06:04:40.948Z,4.70
2018-01-12T06:07:08.706Z,4.90
2018-01-12T06:09:36.539Z,4.80
2018-01-12T06:12:04.190Z,4.80
2018-01-12T06:14:32.838Z,4.80
2018-01-12T06:17:00.530Z,4.80
2018-01-12T06:19:29.952Z,4.80
2018-01-12T06:21:57.849Z,4.80
2018-01-12T06:24:26.319Z,5.30
2018-01-12T06:26:54.132Z,5.20
2018-01-12T06:29:21.838Z,5.30
2018-01-12T06:31:49.489Z,5.30
2018-01-12T06:34:17.291Z,5.10
2018-01-12T06:36:45.752Z,5.10
2018-01-12T06:39:14.297Z,5.10
2018-01-12T06:41:42.076Z,5.00
2018-01-12T06:44:09.879Z,5.20
2018-01-12T06:46:37.702Z,5.20
2018-01-12T06:49:06.360Z,5.00
2018-01-12T06:51:34.110Z,5.00
2018-01-12T06:54:02.183Z,5.00
2018-01-12T06:56:29.891Z,5.00
2018-01-12T06:58:58.314Z,4.80
2018-01-12T07:01:26.022Z,4.80
2018-01-12T07:03:53.687Z,4.90
2018-01-12T07:06:22.359Z,4.90
2018-01-12T07:08:50.047Z,4.90
2018-01-12T07:11:19.064Z,4.90
2018-01-12T07:13:46.815Z,4.90
2018-01-12T07:16:14.549Z,5.00
2018-01-12T07:18:43.247Z,4.80
2018-01-12T07:21:22.886Z,4.80
2018-01-12T07:23:50.591Z,4.70
2018-01-12T07:26:18.299Z,4.70
2018-01-12T07:28:46.745Z,4.60
2018-01-12T07:31:14.664Z,4.60
2018-01-12T07:33:42.329Z,4.60
2018-01-12T07:36:10.052Z,4.50
2018-01-12T07:38:38.852Z,4.60
2018-01-12T07:41:06.567Z,4.60
2018-01-12T07:43:34.988Z,4.60
2018-01-12T07:46:03.470Z,4.70
2018-01-12T07:48:32.057Z,4.70
2018-01-12T07:50:59.774Z,4.70
2018-01-12T07:53:27.435Z,4.80
2018-01-12T07:55:57.806Z,4.90
2018-01-12T07:58:25.473Z,4.90
2018-01-12T08:00:59.167Z,5.00
2018-01-12T08:03:28.031Z,5.10
2018-01-12T08:05:56.510Z,5.00
2018-01-12T08:08:25.068Z,5.20
2018-01-12T08:10:52.784Z,5.20
2018-01-12T08:13:20.507Z,5.20
2018-01-12T08:15:48.326Z,5.20
2018-01-12T08:18:15.984Z,5.10
2018-01-12T08:20:45.356Z,5.10
2018-01-12T08:23:13.147Z,5.10
2018-01-12T08:25:40.845Z,5.10
2018-01-12T08:28:09.991Z,5.00
2018-01-12T08:30:37.738Z,5.00
2018-01-12T08:33:05.390Z,5.10
2018-01-12T08:35:33.191Z,5.20
2018-01-12T08:38:00.858Z,5.20
2018-01-12T08:40:28.662Z,5.20
2018-01-12T08:42:56.323Z,5.10
2018-01-12T08:45:24.208Z,5.20
2018-01-12T08:47:51.863Z,5.30
2018-01-12T08:50:19.655Z,5.50
2018-01-12T08:52:48.132Z,5.50
2018-01-12T08:55:15.883Z,5.50
2018-01-12T08:57:43.535Z,5.50
2018-01-12T09:00:11.486Z,5.50
2018-01-12T09:02:39.150Z,5.60
2018-01-12T09:05:06.998Z,5.80
2018-01-12T09:07:34.741Z,5.70
2018-01-12T09:10:03.762Z,5.60
2018-01-12T09:12:31.580Z,5.60
2018-01-12T09:15:11.906Z,5.80
2018-01-12T09:17:48.045Z,5.70
2018-01-12T09:20:16.836Z,5.90
2018-01-12T09:22:48.281Z,5.80
2018-01-12T09:25:26.874Z,5.70
2018-01-12T09:27:54.551Z,6.00
2018-01-12T09:30:22.325Z,6.30
2018-01-12T09:32:50.074Z,6.30
2018-01-12T09:35:18.675Z,6.30
2018-01-12T09:37:46.479Z,6.20
2018-01-12T09:43:20.244Z,6.20
2018-01-12T09:45:48.823Z,6.20
2018-01-12T09:48:26.237Z,6.40
2018-01-12T09:50:54.781Z,6.40
2018-01-12T09:53:22.536Z,6.40
2018-01-12T09:55:50.234Z,6.50
2018-01-12T09:58:17.935Z,6.50
2018-01-12T10:01:04.430Z,6.50
2018-01-12T10:03:32.956Z,6.30
2018-01-12T10:06:00.799Z,6.30
2018-01-12T10:08:28.509Z,6.30
2018-01-12T10:10:56.580Z,6.30
2018-01-12T10:13:25.018Z,6.40
2018-01-12T10:15:52.723Z,6.40
2018-01-12T10:18:26.256Z,6.50
2018-01-12T10:20:54.499Z,6.40
2018-01-12T10:23:23.153Z,6.60
2018-01-12T10:25:50.822Z,6.60
2018-01-12T10:28:19.654Z,6.80
2018-01-12T10:31:02.951Z,6.60
2018-01-12T10:36:40.307Z,6.60
2018-01-12T10:39:19.807Z,6.60
2018-01-12T10:42:00.171Z,6.80
2018-01-12T10:44:28.700Z,7.00
2018-01-12T10:50:17.877Z,7.00
2018-01-12T10:52:49.570Z,6.90
2018-01-12T10:55:18.078Z,7.00
2018-01-12T10:57:47.123Z,7.00
2018-01-12T11:00:26.793Z,6.90
2018-01-12T11:02:55.251Z,7.00
2018-01-12T11:05:23.679Z,7.00
2018-01-12T11:07:52.665Z,7.00
2018-01-12T11:10:20.344Z,6.90
2018-01-12T11:12:48.195Z,7.10
2018-01-12T11:15:15.935Z,7.20
2018-01-12T11:17:43.653Z,7.40
2018-01-12T11:20:11.435Z,7.40
2018-01-12T11:22:39.902Z,7.20
2018-01-12T11:25:07.574Z,7.20
2018-01-12T11:27:36.128Z,7.40
2018-01-12T11:30:03.815Z,7.40
2018-01-12T11:35:11.580Z,7.40
2018-01-12T11:37:39.291Z,7.40
2018-01-12T11:40:07.966Z,7.40
2018-01-12T11:42:35.671Z,7.40
2018-01-12T11:47:52.435Z,7.10
2018-01-12T11:50:21.078Z,7.20
2018-01-12T11:52:48.803Z,7.20
2018-01-12T11:55:16.450Z,7.20
2018-01-12T11:57:46.025Z,7.40
2018-01-12T12:00:13.949Z,7.40
2018-01-12T12:02:41.759Z,7.40
2018-01-12T12:05:09.504Z,7.30
2018-01-12T12:07:37.211Z,7.20
2018-01-12T12:10:05.019Z,7.30
2018-01-12T12:12:32.721Z,7.20
2018-01-12T12:15:00.774Z,7.20
2018-01-12T12:17:30.770Z,7.10
2018-01-12T12:19:58.443Z,7.10
2018-01-12T12:22:26.673Z,7.10
2018-01-12T12:24:54.334Z,7.40
2018-01-12T12:27:22.112Z,7.30
2018-01-12T12:29:49.774Z,7.30
2018-01-12T12:32:17.466Z,7.60
2018-01-12T12:34:45.882Z,7.70
2018-01-12T12:37:13.575Z,7.70
2018-01-12T12:39:41.275Z,7.80
2018-01-12T12:42:09.706Z,7.50
2018-01-12T12:44:37.466Z,7.50
2018-01-12T12:47:05.217Z,7.50
2018-01-12T12:49:32.923Z,7.60
2018-01-12T12:52:00.578Z,7.60
2018-01-12T12:54:29.407Z,7.40
2018-01-12T12:56:57.093Z,7.60
2018-01-12T12:59:24.836Z,7.80
2018-01-12T13:01:52.675Z,7.70
2018-01-12T13:04:20.479Z,7.60
2018-01-12T13:06:48.249Z,7.60
2018-01-12T13:09:16.026Z,7.40
2018-01-12T13:11:43.673Z,7.40
2018-01-12T13:14:11.442Z,7.50
2018-01-12T13:16:39.110Z,7.40
2018-01-12T13:19:14.290Z,7.30
2018-01-12T13:21:42.081Z,7.20
2018-01-12T13:24:10.604Z,7.40
2018-01-12T13:26:38.379Z,7.30
2018-01-12T13:29:06.470Z,7.40
2018-01-12T13:31:34.167Z,7.30
2018-01-12T13:34:01.903Z,7.40
2018-01-12T13:36:29.582Z,7.50
2018-01-12T13:38:57.284Z,7.10
2018-01-12T13:41:25.720Z,7.00
2018-01-12T13:43:53.422Z,7.00
2018-01-12T13:46:21.846Z,7.40
2018-01-12T13:48:49.547Z,7.40
2018-01-12T13:51:17.977Z,7.50
2018-01-12T13:53:45.678Z,7.50
2018-01-12T13:56:14.201Z,7.20
2018-01-12T13:58:41.911Z,7.20
2018-01-12T14:01:09.575Z,7.40
2018-01-12T14:03:37.274Z,7.30
2018-01-12T14:06:05.227Z,7.30
2018-01-12T14:08:33.161Z,7.40
2018-01-12T14:11:02.202Z,7.30
2018-01-12T14:13:29.995Z,7.20
2018-01-12T14:15:57.711Z,7.20
2018-01-12T14:18:25.414Z,7.30
2018-01-12T14:20:53.071Z,6.90
2018-01-12T14:23:21.538Z,6.90
2018-01-12T14:25:49.190Z,6.90
2018-01-12T14:28:16.886Z,7.10
2018-01-12T14:30:44.558Z,7.20
2018-01-12T14:33:13.019Z,7.10
2018-01-12T14:35:40.674Z,7.10
2018-01-12T14:38:08.366Z,7.10
2018-01-12T14:40:36.789Z,7.20
2018-01-12T14:43:05.249Z,7.20
2018-01-12T14:45:32.906Z,7.20
2018-01-12T14:48:00.810Z,7.30
2018-01-12T14:50:28.467Z,7.10
2018-01-12T14:52:56.113Z,7.00
2018-01-12T14:55:23.810Z,7.20
2018-01-12T14:57:52.272Z,7.30
2018-01-12T15:00:19.970Z,7.30
2018-01-12T15:02:47.619Z,7.20
2018-01-12T15:05:16.078Z,7.00
2018-01-12T15:07:43.734Z,7.00
2018-01-12T15:10:11.434Z,7.20
2018-01-12T15:12:39.094Z,7.10
2018-01-12T15:15:06.834Z,7.10
2018-01-12T15:17:35.264Z,7.10
2018-01-12T15:20:02.987Z,7.10
2018-01-12T15:22:30.643Z,7.20
2018-01-12T15:24:58.339Z,7.20
2018-01-12T15:27:26.022Z,7.10
2018-01-12T15:29:53.728Z,7.00
2018-01-12T15:32:21.426Z,7.00
2018-01-12T15:34:49.125Z,6.80
2018-01-12T15:37:17.550Z,6.90
2018-01-12T15:39:45.511Z,6.90
2018-01-12T15:42:13.162Z,6.90
2018-01-12T15:44:40.870Z,7.00
2018-01-12T15:47:08.522Z,6.90
2018-01-12T15:49:36.221Z,7.00
2018-01-12T15:52:04.652Z,6.90
2018-01-12T15:54:32.371Z,6.90
2018-01-12T15:57:00.045Z,6.90
2018-01-12T15:59:27.755Z,6.80
2018-01-12T16:01:55.415Z,6.80
2018-01-12T16:04:23.120Z,6.80
2018-01-12T16:06:50.858Z,7.00
2018-01-12T16:09:19.336Z,6.90
2018-01-12T16:11:46.995Z,6.90
2018-01-12T16:14:15.462Z,7.00
2018-01-12T16:16:43.911Z,6.90
2018-01-12T16:19:11.830Z,6.90
2018-01-12T16:21:39.571Z,7.00
2018-01-12T16:24:08.038Z,6.90
2018-01-12T16:26:36.536Z,6.90
2018-01-12T16:29:05.042Z,6.90
2018-01-12T16:31:32.704Z,6.90
2018-01-12T16:34:00.403Z,6.80
2018-01-12T16:36:28.058Z,6.80
2018-01-12T16:38:55.715Z,6.70
2018-01-12T16:41:23.456Z,6.80
2018-01-12T16:43:51.129Z,6.80
2018-01-12T16:46:18.851Z,6.70
2018-01-12T16:48:46.778Z,6.50
2018-01-12T16:51:15.247Z,6.40
2018-01-12T16:53:42.905Z,6.40
2018-01-12T16:56:10.614Z,6.30
2018-01-12T16:58:38.275Z,6.60
2018-01-12T17:01:05.975Z,6.40
2018-01-12T17:03:33.639Z,6.60
2018-01-12T17:06:01.343Z,6.50
2018-01-12T17:08:29.003Z,6.30
2018-01-12T17:10:56.709Z,6.20
2018-01-12T17:13:24.423Z,6.00
2018-01-12T17:15:52.118Z,6.00
2018-01-12T17:18:19.822Z,6.00
2018-01-12T17:20:48.286Z,5.90
2018-01-12T17:23:15.975Z,5.90
2018-01-12T17:25:43.683Z,5.90
2018-01-12T17:28:11.339Z,6.00
2018-01-12T17:30:39.034Z,6.00
2018-01-12T17:33:07.465Z,6.20
2018-01-12T17:35:35.155Z,6.20
2018-01-12T17:38:02.819Z,6.10
2018-01-12T17:40:30.518Z,6.00
2018-01-12T17:42:58.261Z,6.10
2018-01-12T17:45:26.011Z,6.30
2018-01-12T17:47:54.463Z,6.60
2018-01-12T17:50:22.167Z,6.60
2018-01-12T17:52:49.866Z,6.60
2018-01-12T17:55:17.725Z,6.60
2018-01-12T17:57:45.646Z,6.60
2018-01-12T18:00:14.167Z,6.50
2018-01-12T18:02:41.890Z,6.50
2018-01-12T18:05:10.450Z,6.50
2018-01-12T18:07:38.421Z,6.50
2018-01-12T18:10:07.046Z,6.40
2018-01-12T18:12:34.853Z,6.40
2018-01-12T18:15:02.697Z,6.50
2018-01-12T18:17:30.385Z,6.40
2018-01-12T18:19:58.085Z,6.50
2018-01-12T18:22:26.249Z,6.40
2018-01-12T18:24:53.995Z,6.30
2018-01-12T18:27:21.798Z,6.30
2018-01-12T18:29:49.508Z,6.20
2018-01-12T18:32:18.167Z,6.40
2018-01-12T18:34:45.897Z,6.30
2018-01-12T18:37:13.613Z,6.30
2018-01-12T18:39:42.289Z,6.40
2018-01-12T18:42:10.798Z,6.20
2018-01-12T18:44:38.638Z,6.20
2018-01-12T18:47:07.266Z,6.20
2018-01-12T18:49:34.963Z,6.20
2018-01-12T18:52:02.996Z,6.10
2018-01-12T18:54:30.798Z,6.10
2018-01-12T18:56:59.287Z,6.40
2018-01-12T18:59:27.775Z,6.40
2018-01-12T19:01:56.405Z,6.60
2018-01-12T19:04:24.221Z,6.50
2018-01-12T19:06:52.466Z,6.60
2018-01-12T19:09:20.300Z,6.60
2018-01-12T19:11:48.003Z,6.60
2018-01-12T19:14:16.725Z,6.60
2018-01-12T19:16:46.954Z,6.60
2018-01-12T19:19:14.949Z,6.60
2018-01-12T19:21:42.646Z,6.60
2018-01-12T19:24:11.137Z,6.60
2018-01-12T19:26:38.927Z,6.60
2018-01-12T19:29:06.747Z,6.50
2018-01-12T19:31:34.658Z,6.40
2018-01-12T19:34:02.329Z,6.40
2018-01-12T19:36:30.071Z,6.30
2018-01-12T19:38:57.725Z,6.30
2018-01-12T19:41:25.482Z,6.40
2018-01-12T19:43:53.147Z,6.50
2018-01-12T19:46:20.854Z,6.40
2018-01-12T19:48:48.515Z,6.40
2018-01-12T19:51:16.553Z,6.40
2018-01-12T19:53:44.240Z,6.30
2018-01-12T19:56:12.177Z,6.40
2018-01-12T19:58:39.835Z,6.30
2018-01-12T20:01:07.688Z,6.30
2018-01-12T20:03:35.461Z,6.20
2018-01-12T20:06:03.367Z,6.10
2018-01-12T20:08:31.140Z,6.10
2018-01-12T20:10:59.622Z,6.30
2018-01-12T20:13:27.477Z,6.30
2018-01-12T20:15:56.030Z,6.50
2018-01-12T20:18:23.688Z,6.50
2018-01-12T20:20:51.686Z,6.60
2018-01-12T20:23:20.122Z,6.50
2018-01-12T20:25:47.930Z,6.50
2018-01-12T20:28:16.044Z,6.50
2018-01-12T20:30:44.132Z,6.50
2018-01-12T20:33:11.848Z,6.50
2018-01-12T20:35:39.610Z,6.50
2018-01-12T20:38:07.272Z,6.50
2018-01-12T20:40:35.056Z,6.30
2018-01-12T20:43:02.715Z,6.20
2018-01-12T20:45:30.614Z,6.10
2018-01-12T20:47:59.076Z,6.20
2018-01-12T20:50:26.734Z,6.20
2018-01-12T20:52:54.460Z,6.20
2018-01-12T20:55:22.174Z,6.30
2018-01-12T20:57:50.708Z,6.30
2018-01-12T21:00:18.407Z,6.30
2018-01-12T21:02:46.145Z,6.40
2018-01-12T21:05:13.817Z,6.50
2018-01-12T21:07:41.546Z,6.30
2018-01-12T21:10:09.530Z,6.40
2018-01-12T21:12:37.855Z,6.30
2018-01-12T21:15:05.561Z,6.30
2018-01-12T21:17:33.265Z,6.30
2018-01-12T21:20:01.693Z,6.30
2018-01-12T21:22:29.401Z,6.30
2018-01-12T21:24:57.109Z,6.30
2018-01-12T21:27:25.599Z,6.30
2018-01-12T21:29:53.748Z,6.20
2018-01-12T21:32:21.574Z,6.20
2018-01-12T21:34:50.065Z,6.00
2018-01-12T21:37:18.535Z,6.10
2018-01-12T21:39:46.955Z,6.20
2018-01-12T21:42:14.658Z,6.20
2018-01-12T21:44:42.409Z,6.20
2018-01-12T21:47:10.124Z,6.20
2018-01-12T21:49:37.797Z,6.20
2018-01-12T21:52:05.506Z,6.40
2018-01-12T21:54:33.950Z,6.30
2018-01-12T21:57:01.651Z,6.30
2018-01-12T21:59:30.114Z,6.30
2018-01-12T22:01:57.815Z,6.30
2018-01-12T22:04:25.472Z,6.30
2018-01-12T22:06:53.185Z,6.30
2018-01-12T22:09:20.855Z,6.20
2018-01-12T22:11:48.551Z,6.20
2018-01-12T22:14:16.210Z,6.40
2018-01-12T22:16:43.912Z,6.40
2018-01-12T22:19:11.579Z,6.30
2018-01-12T22:21:39.290Z,6.30
2018-01-12T22:24:06.954Z,6.10
2018-01-12T22:26:34.686Z,6.10
2018-01-12T22:29:03.124Z,6.20
2018-01-12T22:31:30.848Z,6.10
2018-01-12T22:33:58.525Z,6.20
2018-01-12T22:36:26.235Z,6.20
2018-01-12T22:38:54.666Z,6.20
2018-01-12T22:41:22.365Z,6.20
2018-01-12T22:43:50.024Z,6.30
2018-01-12T22:46:17.726Z,6.30
2018-01-12T22:48:45.378Z,6.30
2018-01-12T22:51:13.083Z,6.30
2018-01-12T22:53:40.742Z,6.30
2018-01-12T22:56:08.455Z,6.30
2018-01-12T22:58:36.114Z,6.30
2018-01-12T23:01:03.811Z,6.30
2018-01-12T23:03:31.504Z,6.20
2018-01-12T23:05:59.195Z,6.40
2018-01-12T23:08:26.896Z,6.40
2018-01-12T23:10:54.577Z,6.40
2018-01-12T23:13:22.266Z,6.40
2018-01-12T23:15:50.690Z,6.40
2018-01-12T23:18:18.391Z,6.40
2018-01-12T23:20:46.810Z,6.20
2018-01-12T23:23:14.513Z,6.20
2018-01-12T23:25:42.166Z,6.30
2018-01-12T23:28:09.862Z,6.30
2018-01-12T23:30:37.572Z,6.30
2018-01-12T23:33:05.266Z,6.30
2018-01-12T23:35:33.690Z,6.30
2018-01-12T23:38:01.399Z,6.30
2018-01-12T23:40:29.817Z,6.20
2018-01-12T23:42:57.530Z,6.20
2018-01-12T23:45:25.192Z,6.20
2018-01-12T23:47:52.885Z,6.20
2018-01-12T23:50:20.567Z,6.20
2018-01-12T23:52:48.292Z,6.30
2018-01-12T23:55:15.958Z,6.20
2018-01-12T23:57:43.663Z,6.20
